Heartland Express Inc (HTLD) Latest Bloomsberg Price


Mffais Ranking #243 Overall / #2 Industry
Industry: Trucking

Number of Companies: 108 (Ranking #1556 Overall/#6 Industry)
Inflow: $ 58,706 (K) (Ranking #1232 Overall/#4 Industry)
Outflow: $ -21,382 (K)
Mffais Flow: $ 37,323 (K) (Ranking #243 Overall/#2 Industry)


Receive a FREE weekly executive review of stocks moving into the top 10, taking the top industy spot or moving up within their industry. Sent directly to your Inbox every Saturday. Sign up today and get last week's review immediately sent to you.

We value and respect your privacy. Please read our Terms and Conditions which states our firm commitment to your privacy. Your email address will not be shared with a third party, nor will it be sold or used for purposes other than subscription for the weekly review.

Owner CPOR Shares Action Qty Chg Invested (K) Total Current Value (K)
Aberdeen Asset Management Plc Uk 2016-09-30 929,368 New Holding 929,368 $ 16,775 $ 16,775
Nuance Investments Llc 2016-09-30 2,327,254 Added More 652,309 $ 11,774 $ 42,006
Perkins Investment Management Llc 2016-09-30 624,481 New Holding 624,481 $ 11,271 $ 11,271
Folger Hill Asset Management Lp 2016-09-30 323,774 New Holding 323,774 $ 5,844 $ 5,844
Arrowpoint Asset Management Llc 2016-09-30 4,736,906 Added More 277,887 $ 5,015 $ 85,501
Echo Street Capital Management Llc 2016-09-30 161,560 New Holding 161,560 $ 2,916 $ 2,916
Cipher Capital Lp 2016-09-30 158,279 Added More 37,503 $ 676 $ 2,856
Legal General Group Plc 2016-09-30 41,653 Added More 29,668 $ 535 $ 751
Omers Administration Corp 2016-09-30 29,500 New Holding 29,500 $ 532 $ 532
Symphony Asset Management Llc 2016-09-30 27,950 New Holding 27,950 $ 504 $ 504
Lbmc Investment Advisors Llc 2016-09-30 22,923 New Holding 22,923 $ 413 $ 413
Bluecrest Capital Management Ltd 2016-09-30 30,239 Added More 19,707 $ 355 $ 545
Fisher Asset Management Llc 2016-09-30 2,249,482 Added More 13,490 $ 243 $ 40,603
Kcg Holdings Inc 2016-09-30 32,309 Added More 11,942 $ 215 $ 583
Trexquant Investment Lp 2016-09-30 10,917 New Holding 10,917 $ 197 $ 197
Sg Americas Securities Llc 2016-09-30 10,739 New Holding 10,739 $ 193 $ 193
Boothbay Fund Management Llc 2016-09-30 10,577 New Holding 10,577 $ 190 $ 190
Jane Street Group Llc 2016-09-30 10,355 New Holding 10,355 $ 186 $ 186
Pacad Investment Ltd 2016-09-30 13,900 Added More 6,800 $ 122 $ 250
Dimensional Fund Advisors Lp 2016-09-30 2,164,825 Added More 6,698 $ 120 $ 39,075
Parametric Portfolio Associates Llc 2016-09-30 189,763 Added More 6,528 $ 117 $ 3,425
Ramsey Quantitative Systems 2016-09-30 35,792 Added More 5,592 $ 100 $ 646
Rhumbline Advisers 2016-09-30 95,704 Added More 5,370 $ 96 $ 1,727
Sprucegrove Investment Management Ltd 2016-09-30 134,773 Added More 3,300 $ 59 $ 2,432
Sei Investments Co 2016-09-30 57,387 Added More 2,729 $ 49 $ 1,035
Alambic Investment Management L P 2016-09-30 25,100 Added More 2,500 $ 45 $ 453
Guggenheim Capital Llc 2016-09-30 15,030 Added More 1,804 $ 32 $ 271
First New York Securities Llc Ny 2016-09-30 1,600 New Holding 1,600 $ 28 $ 28
Ngam Advisors L P 2016-09-30 17,049 Added More 1,077 $ 19 $ 307
California State Teachers Retirement System 2016-09-30 97,502 Added More 900 $ 16 $ 1,759
Cutler Group Lp 2016-09-30 800 New Holding 800 $ 14 $ 14
Bessemer Group Inc 2016-09-30 550 New Holding 550 $ 9 $ 9
Tortoise Investment Management Llc 2016-09-30 486 New Holding 486 $ 8 $ 8
Solaris Asset Management Llc 2016-09-30 351 New Holding 351 $ 6 $ 6
Zurcher Kantonalbank Zurich Cantonalbank 2016-09-30 1,464 Added More 314 $ 5 $ 26
Lebenthal Asset Management Llc 2016-09-30 238 New Holding 238 $ 4 $ 4
Ftb Advisors Inc 2016-09-30 983 Added More 98 $ 1 $ 17
Aperio Group Llc 2016-09-30 28,762 Added More 26 $ 0 $ 519
Commerce Bank 2016-09-30 26,660 Added More 5 $ 0 $ 481
Bruderman Asset Management Llc 2016-09-30 1,840 Added More 2 $ 0 $ 33
Quadrant Capital Group Llc 2016-09-30 505 No Change 0 $ 0 $ 9
Ladenburg Thalmann Financial Services Inc 2016-09-30 666 No Change 0 $ 0 $ 12
Northwestern Mutual Wealth Management Co 2016-09-30 49 No Change 0 $ 0 $ 0
Teachers Advisors Inc 2016-09-30 73,445 No Change 0 $ 0 $ 1,325
Nisa Investment Advisors Llc 2016-09-30 5,400 No Change 0 $ 0 $ 97
Farmers Merchants Investments Inc 2016-09-30 3,000 No Change 0 $ 0 $ 54
Cornerstone Capital Management Holdings Llc 2016-09-30 0 New Holding 0 $ 0 $ 0
Hills Bank Trust Co 2016-09-30 20,942 No Change 0 $ 0 $ 378
Panagora Asset Management Inc 2016-09-30 2,953 No Change 0 $ 0 $ 53
Teachers Retirement System Of The State Of Kentucky 2016-09-30 19,700 No Change 0 $ 0 $ 355
Ifp Advisors Inc 2016-09-30 460 No Change 0 $ 0 $ 8
Qs Investors Llc 2016-09-30 17 No Change 0 $ 0 $ 0
Mv Capital Management Inc 2016-09-30 226 No Change 0 $ 0 $ 4
Next Financial Group Inc 2016-09-30 34 No Change 0 $ 0 $ 0
Creative Planning 2016-09-30 2,023 No Change 0 $ 0 $ 36
Chicago Partners Investment Group Llc 2016-09-30 1,376 No Change 0 $ 0 $ 24
Advisory Services Network Llc 2016-09-30 103 No Change 0 $ 0 $ 1
Gardner Russo Gardner Llc 2016-09-30 12,499 No Change 0 $ 0 $ 225
Msi Financial Services Inc 2016-09-30 57 No Change 0 $ 0 $ 1
Plante Moran Financial Advisors Llc 2016-09-30 133 No Change 0 $ 0 $ 2
Sib Llc 2016-09-30 257,297 No Change 0 $ 0 $ 4,644
New York State Common Retirement Fund 2016-09-30 65,000 No Change 0 $ 0 $ 1,173
Assetmark Inc 2016-09-30 1,915 Sold Some -3 $ -0 $ 34
Archford Capital Strategies Llc 2016-09-30 96 Sold Some -96 $ -1 $ 1
Advisor Group Inc 2016-09-30 3,023 Sold Some -108 $ -1 $ 54
Blackrock Inc 2016-09-30 3,855 Sold Some -231 $ -4 $ 69
Great Lakes Advisors Llc 2016-09-30 17,231 Sold Some -238 $ -4 $ 311
Trust Co Of Vermont 2016-09-30 0 Sold All -305 $ -5 $ 0
Pnc Financial Services Group Inc 2016-09-30 125 Sold Some -456 $ -8 $ 2
Peoples United Financial Inc 2016-09-30 30,859 Sold Some -484 $ -8 $ 557
Ls Investment Advisors Llc 2016-09-30 1,642 Sold Some -494 $ -8 $ 29
Thomson Horstmann Bryant Inc 2016-09-30 26,840 Sold Some -520 $ -9 $ 484
Hsbc Holdings Plc 2016-09-30 16,323 Sold Some -532 $ -9 $ 294
Tower Research Capital Llc Trc 2016-09-30 1,367 Sold Some -543 $ -9 $ 24
Capstone Asset Management Co 2016-09-30 16,653 Sold Some -943 $ -17 $ 300
Us Bancorp De 2016-09-30 24,587 Sold Some -1,322 $ -23 $ 443
Pinebridge Investments L P 2016-09-30 5,507 Sold Some -1,987 $ -35 $ 99
Westwood Holdings Group Inc 2016-09-30 621,895 Sold Some -2,050 $ -37 $ 11,225
Mason Street Advisors Llc 2016-09-30 8,916 Sold Some -2,637 $ -47 $ 160
American International Group Inc 2016-09-30 33,796 Sold Some -2,680 $ -48 $ 610
Horizon Kinetics Llc 2016-09-30 21,789 Sold Some -2,876 $ -51 $ 393
Neville Rodie Shaw Inc 2016-09-30 231,588 Sold Some -3,816 $ -68 $ 4,180
Swiss National Bank 2016-09-30 76,300 Sold Some -5,000 $ -90 $ 1,377
Thrivent Financial For Lutherans 2016-09-30 22,158 Sold Some -6,240 $ -112 $ 399
Teacher Retirement System Of Texas 2016-09-30 0 Sold All -6,409 $ -115 $ 0
Blackrock Investment Management Llc 2016-09-30 191,857 Sold Some -7,004 $ -126 $ 3,463
Arizona State Retirement System 2016-09-30 22,367 Sold Some -8,300 $ -149 $ 403
Gsa Capital Partners Llp 2016-09-30 0 Sold All -10,555 $ -190 $ 0
Public Sector Pension Investment Board 2016-09-30 30,633 Sold Some -11,100 $ -200 $ 552
Nationwide Fund Advisors 2016-09-30 392,870 Sold Some -11,181 $ -201 $ 7,091
New York State Teachers Retirement System 2016-09-30 153,653 Sold Some -11,939 $ -215 $ 2,773
Texas Permanent School Fund 2016-09-30 32,992 Sold Some -12,194 $ -220 $ 595
Profund Advisors Llc 2016-09-30 0 Sold All -13,194 $ -238 $ 0
Walleye Trading Llc 2016-09-30 1,166 Sold Some -13,266 $ -239 $ 21
Envestnet Asset Management Inc 2016-09-30 25,986 Sold Some -13,898 $ -250 $ 469
State Of Tennessee Treasury Department 2016-09-30 34,767 Sold Some -14,320 $ -258 $ 627
Comerica Bank 2016-09-30 44,292 Sold Some -15,775 $ -284 $ 799
Northern Trust Corp 2016-09-30 598,001 Sold Some -18,204 $ -328 $ 10,793
Shayne Co Llc 2016-09-30 452,801 Sold Some -22,923 $ -413 $ 8,173
Kennedy Capital Management Inc 2016-09-30 415,001 Sold Some -24,787 $ -447 $ 7,490
Stevens Capital Management Lp 2016-09-30 0 Sold All -31,807 $ -574 $ 0
Arete Wealth Advisors Llc 2016-09-30 0 Sold All -33,446 $ -603 $ 0
Gotham Asset Management Llc 2016-09-30 123,211 Sold Some -48,856 $ -881 $ 2,223
Raymond James Associates 2016-09-30 44,950 Sold Some -99,391 $ -1,794 $ 811
Investment Counselors Of Maryland Llc 2016-09-30 816,945 Sold Some -123,125 $ -2,222 $ 14,745
Weiss Multi-Strategy Advisers Llc 2016-09-30 0 Sold All -139,787 $ -2,523 $ 0
Redwood Capital Investments Llc 2016-09-30 3,968,226 Sold Some -199,984 $ -3,609 $ 71,626
Kayne Anderson Rudnick Investment Management Llc 2016-09-30 26,081 Sold Some -259,638 $ -4,686 $ 470